createdAt,value
2022-11-25T00:00:23.470Z,63.58
2022-11-25T00:01:23.466Z,63.85
2022-11-25T00:02:23.713Z,63.85
2022-11-25T00:03:23.561Z,63.95
2022-11-25T00:04:23.546Z,64.15
2022-11-25T00:05:23.474Z,63.75
2022-11-25T00:06:23.435Z,63.75
2022-11-25T00:07:23.456Z,63.85
2022-11-25T00:08:23.518Z,63.85
2022-11-25T00:09:23.426Z,63.45
2022-11-25T00:10:23.386Z,63.55
2022-11-25T00:11:23.394Z,63.24
2022-11-25T00:12:23.387Z,63.34
2022-11-25T00:13:23.386Z,63.14
2022-11-25T00:14:23.481Z,63.04
2022-11-25T00:15:23.387Z,63.04
2022-11-25T00:16:23.509Z,62.43
2022-11-25T00:17:23.350Z,62.84
2022-11-25T00:18:23.352Z,63.14
2022-11-25T00:19:23.346Z,62.33
2022-11-25T00:20:23.429Z,63.14
2022-11-25T00:21:23.309Z,63.04
2022-11-25T00:22:23.318Z,63.75
2022-11-25T00:23:23.311Z,63.45
2022-11-25T00:24:23.310Z,62.94
2022-11-25T00:25:23.306Z,63.14
2022-11-25T00:26:23.366Z,62.63
2022-11-25T00:27:23.272Z,62.53
2022-11-25T00:28:23.270Z,62.84
2022-11-25T00:29:23.277Z,62.91
2022-11-25T00:30:23.266Z,62.94
2022-11-25T00:31:23.333Z,63.04
2022-11-25T00:32:23.351Z,62.74
2022-11-25T00:33:23.229Z,62.71
2022-11-25T00:34:23.230Z,63.04
2022-11-25T00:35:23.233Z,62.74
2022-11-25T00:36:23.230Z,62.94
2022-11-25T00:37:23.191Z,62.84
2022-11-25T00:38:23.270Z,63.04
2022-11-25T00:39:23.187Z,62.74
2022-11-25T00:40:23.190Z,62.84
2022-11-25T00:41:23.187Z,62.94
2022-11-25T00:42:23.150Z,63.04
2022-11-25T00:43:23.150Z,63.11
2022-11-25T00:44:23.229Z,63.34
2022-11-25T00:45:23.175Z,63.04
2022-11-25T00:46:23.150Z,63.14
2022-11-25T00:47:23.108Z,63.14
2022-11-25T00:48:23.110Z,62.74
2022-11-25T00:49:23.110Z,63.04
2022-11-25T00:50:23.190Z,62.63
2022-11-25T00:51:23.110Z,62.53
2022-11-25T00:52:23.070Z,62.74
2022-11-25T00:53:23.070Z,62.53
2022-11-25T00:54:23.068Z,62.63
2022-11-25T00:55:23.079Z,62.63
2022-11-25T00:56:23.151Z,62.56
2022-11-25T00:57:23.069Z,62.43
2022-11-25T00:58:23.036Z,62.63
2022-11-25T00:59:23.032Z,62.94
2022-11-25T01:00:23.029Z,62.63
2022-11-25T01:01:23.087Z,63.04
2022-11-25T01:02:23.272Z,62.43
2022-11-25T01:03:23.028Z,62.74
2022-11-25T01:04:22.992Z,62.94
2022-11-25T01:05:22.986Z,62.43
2022-11-25T01:06:22.996Z,62.63
2022-11-25T01:07:23.047Z,62.53
2022-11-25T01:08:22.991Z,62.53
2022-11-25T01:09:22.946Z,62.43
2022-11-25T01:10:22.949Z,62.74
2022-11-25T01:11:22.951Z,62.74
2022-11-25T01:12:22.956Z,62.53
2022-11-25T01:13:22.998Z,62.43
2022-11-25T01:14:22.990Z,63.17
2022-11-25T01:15:22.912Z,62.43
2022-11-25T01:16:22.964Z,62.97
2022-11-25T01:17:22.915Z,63.28
2022-11-25T01:18:22.910Z,63.48
2022-11-25T01:19:22.910Z,63.37
2022-11-25T01:20:22.947Z,63.78
2022-11-25T01:21:22.885Z,63.58
2022-11-25T01:22:22.825Z,63.04
2022-11-25T01:23:22.871Z,63.78
2022-11-25T01:24:24.141Z,63.68
2022-11-25T01:25:22.868Z,63.07
2022-11-25T01:26:22.869Z,63.48
2022-11-25T01:27:22.830Z,63.78
2022-11-25T01:28:22.835Z,63.07
2022-11-25T01:29:22.829Z,63.07
2022-11-25T01:30:22.838Z,63.75
2022-11-25T01:31:22.822Z,63.58
2022-11-25T01:32:22.869Z,63.68
2022-11-25T01:33:23.029Z,63.78
2022-11-25T01:34:22.792Z,63.48
2022-11-25T01:35:22.791Z,63.07
2022-11-25T01:36:22.746Z,62.97
2022-11-25T01:37:22.800Z,63.17
2022-11-25T01:38:22.991Z,63.48
2022-11-25T01:39:26.873Z,63.28
2022-11-25T01:40:23.746Z,63.48
2022-11-25T01:41:22.748Z,63.07
2022-11-25T01:42:22.709Z,63.37
2022-11-25T01:43:22.713Z,63.65
2022-11-25T01:44:22.793Z,63.78
2022-11-25T01:45:25.567Z,63.78
2022-11-25T01:46:23.751Z,63.68
2022-11-25T01:47:22.666Z,63.78
2022-11-25T01:48:22.666Z,63.48
2022-11-25T01:49:22.669Z,63.78
2022-11-25T01:50:22.708Z,63.78
2022-11-25T01:51:22.674Z,63.78
2022-11-25T01:52:22.629Z,63.78
2022-11-25T01:53:22.625Z,63.88
2022-11-25T01:54:22.633Z,63.68
2022-11-25T01:55:22.630Z,63.68
2022-11-25T01:56:22.710Z,63.78
2022-11-25T01:57:22.592Z,63.78
2022-11-25T01:58:22.590Z,63.78
2022-11-25T01:59:22.594Z,63.48
2022-11-25T02:00:22.595Z,63.48
2022-11-25T02:01:22.712Z,63.37
2022-11-25T02:02:22.695Z,63.78
2022-11-25T02:03:22.550Z,63.07
2022-11-25T02:04:22.556Z,63.68
2022-11-25T02:05:22.545Z,63.17
2022-11-25T02:06:22.551Z,63.07
2022-11-25T02:07:22.582Z,63.48
2022-11-25T02:08:22.597Z,63.37
2022-11-25T02:09:22.509Z,63.68
2022-11-25T02:10:22.512Z,63.58
2022-11-25T02:11:22.508Z,62.97
2022-11-25T02:12:22.512Z,63.07
2022-11-25T02:13:22.469Z,63.07
2022-11-25T02:14:22.556Z,62.66
2022-11-25T02:15:22.465Z,62.76
2022-11-25T02:16:22.533Z,62.66
2022-11-25T02:17:22.465Z,62.66
2022-11-25T02:18:22.466Z,62.66
2022-11-25T02:19:22.436Z,62.66
2022-11-25T02:20:22.513Z,62.66
2022-11-25T02:21:22.429Z,62.76
2022-11-25T02:22:22.425Z,63.07
2022-11-25T02:23:22.431Z,63.14
2022-11-25T02:24:22.429Z,62.76
2022-11-25T02:25:22.397Z,62.97
2022-11-25T02:26:22.471Z,62.97
2022-11-25T02:27:22.389Z,62.97
2022-11-25T02:28:22.389Z,63.04
2022-11-25T02:29:22.346Z,62.97
2022-11-25T02:30:22.356Z,63.28
2022-11-25T02:31:22.434Z,62.43
2022-11-25T02:32:22.430Z,62.56
2022-11-25T02:33:22.349Z,62.36
2022-11-25T02:34:25.991Z,62.16
2022-11-25T02:35:22.315Z,62.16
2022-11-25T02:36:22.388Z,62.46
2022-11-25T02:37:22.308Z,62.23
2022-11-25T02:38:22.558Z,62.74
2022-11-25T02:39:22.270Z,62.43
2022-11-25T02:40:22.269Z,62.23
2022-11-25T02:41:22.279Z,62.26
2022-11-25T02:42:22.270Z,62.74
2022-11-25T02:43:22.266Z,62.36
2022-11-25T02:44:22.355Z,62.36
2022-11-25T02:45:22.258Z,63.14
2022-11-25T02:46:22.869Z,62.76
2022-11-25T02:47:22.230Z,62.74
2022-11-25T02:48:39.673Z,63.17
2022-11-25T02:49:23.265Z,62.56
2022-11-25T02:50:22.189Z,62.76
2022-11-25T02:51:22.195Z,62.43
2022-11-25T02:52:22.189Z,62.43
2022-11-25T02:53:22.188Z,62.43
2022-11-25T02:54:22.190Z,62.36
2022-11-25T02:55:22.192Z,62.13
2022-11-25T02:56:22.150Z,62.53
2022-11-25T02:57:22.114Z,62.46
2022-11-25T02:58:22.145Z,62.43
2022-11-25T02:59:22.154Z,62.33
2022-11-25T03:00:22.108Z,62.43
2022-11-25T03:01:22.238Z,62.46
2022-11-25T03:02:22.130Z,62.76
2022-11-25T03:03:22.106Z,62.87
2022-11-25T03:04:22.110Z,62.84
2022-11-25T03:05:22.106Z,62.63
2022-11-25T03:06:22.076Z,63.14
2022-11-25T03:07:22.096Z,63.04
2022-11-25T03:08:22.070Z,62.56
2022-11-25T03:09:22.073Z,62.43
2022-11-25T03:10:22.069Z,62.84
2022-11-25T03:11:22.033Z,62.56
2022-11-25T03:12:22.031Z,62.46
2022-11-25T03:13:22.110Z,62.66
2022-11-25T03:14:22.024Z,62.43
2022-11-25T03:15:21.989Z,62.84
2022-11-25T03:16:22.032Z,62.53
2022-11-25T03:17:21.999Z,62.74
2022-11-25T03:18:21.990Z,62.53
2022-11-25T03:19:22.066Z,62.53
2022-11-25T03:20:21.993Z,62.53
2022-11-25T03:21:21.989Z,62.76
2022-11-25T03:22:42.945Z,62.76
2022-11-25T03:23:21.970Z,62.63
2022-11-25T03:24:21.949Z,62.53
2022-11-25T03:25:22.029Z,62.97
2022-11-25T03:26:21.953Z,62.76
2022-11-25T03:27:21.911Z,62.43
2022-11-25T03:28:21.909Z,62.74
2022-11-25T03:29:21.910Z,62.53
2022-11-25T03:30:21.950Z,62.56
2022-11-25T03:31:21.995Z,62.76
2022-11-25T03:32:21.909Z,62.76
2022-11-25T03:33:21.872Z,62.36
2022-11-25T03:34:21.871Z,62.46
2022-11-25T03:35:21.869Z,62.94
2022-11-25T03:36:21.869Z,62.74
2022-11-25T03:37:22.008Z,62.76
2022-11-25T03:38:21.826Z,62.56
2022-11-25T03:39:21.826Z,62.84
2022-11-25T03:40:21.832Z,62.74
2022-11-25T03:41:21.869Z,62.56
2022-11-25T03:42:21.845Z,62.97
2022-11-25T03:43:22.231Z,62.56
2022-11-25T03:44:21.791Z,62.66
2022-11-25T03:45:21.789Z,62.76
2022-11-25T03:46:21.823Z,62.76
2022-11-25T03:47:21.789Z,62.76
2022-11-25T03:48:21.786Z,62.97
2022-11-25T03:49:21.910Z,62.97
2022-11-25T03:50:21.749Z,63.07
2022-11-25T03:51:21.748Z,62.97
2022-11-25T03:52:21.747Z,62.97
2022-11-25T03:53:21.716Z,62.76
2022-11-25T03:54:21.710Z,62.63
2022-11-25T03:55:21.799Z,62.87
2022-11-25T03:56:21.705Z,62.63
2022-11-25T03:57:21.710Z,62.23
2022-11-25T03:58:21.709Z,62.33
2022-11-25T03:59:21.709Z,62.33
2022-11-25T04:00:21.670Z,62.26
2022-11-25T04:01:21.805Z,62.33
2022-11-25T04:02:21.715Z,62.13
2022-11-25T04:03:21.679Z,61.93
2022-11-25T04:04:21.671Z,62.53
2022-11-25T04:05:21.670Z,62.33
2022-11-25T04:06:21.628Z,62.13
2022-11-25T04:07:21.706Z,62.23
2022-11-25T04:08:21.629Z,62.43
2022-11-25T04:09:21.638Z,61.82
2022-11-25T04:10:21.625Z,61.41
2022-11-25T04:11:21.590Z,61.72
2022-11-25T04:12:21.589Z,61.32
2022-11-25T04:13:21.626Z,62.02
2022-11-25T04:14:21.589Z,62.02
2022-11-25T04:15:21.601Z,62.13
2022-11-25T04:16:21.634Z,61.93
2022-11-25T04:17:21.555Z,62.53
2022-11-25T04:18:21.564Z,62.02
2022-11-25T04:19:21.592Z,61.72
2022-11-25T04:20:21.555Z,62.02
2022-11-25T04:21:21.510Z,61.93
2022-11-25T04:22:21.506Z,62.13
2022-11-25T04:23:21.506Z,61.93
2022-11-25T04:24:21.510Z,62.23
2022-11-25T04:25:21.590Z,62.13
2022-11-25T04:26:21.511Z,61.93
2022-11-25T04:27:21.468Z,61.93
2022-11-25T04:28:21.477Z,61.82
2022-11-25T04:30:07.481Z,62.13
2022-11-25T04:30:21.468Z,61.72
2022-11-25T04:31:21.503Z,62.13
2022-11-25T04:32:21.424Z,60.91
2022-11-25T04:33:21.416Z,62.13
2022-11-25T04:34:21.396Z,61.52
2022-11-25T04:35:21.403Z,61.62
2022-11-25T04:36:21.416Z,61.62
2022-11-25T04:37:21.436Z,61.93
2022-11-25T04:38:21.400Z,61.01
2022-11-25T04:39:21.355Z,61.01
2022-11-25T04:40:21.351Z,60.98
2022-11-25T04:41:21.354Z,61.11
2022-11-25T04:42:21.370Z,60.91
2022-11-25T04:43:21.598Z,61.11
2022-11-25T04:44:21.338Z,60.91
2022-11-25T04:45:23.673Z,61.11
2022-11-25T04:46:21.350Z,61.01
2022-11-25T04:47:21.275Z,61.11
2022-11-25T04:48:21.291Z,61.32
2022-11-25T04:49:21.356Z,61.21
2022-11-25T04:50:21.286Z,61.11
2022-11-25T04:51:21.343Z,61.72
2022-11-25T04:52:21.277Z,61.62
2022-11-25T04:53:21.231Z,61.41
2022-11-25T04:54:21.253Z,61.41
2022-11-25T04:55:21.277Z,61.52
2022-11-25T04:56:21.211Z,61.01
2022-11-25T04:57:21.196Z,61.62
2022-11-25T04:58:21.196Z,61.72
2022-11-25T04:59:21.196Z,61.01
2022-11-25T05:00:21.176Z,61.62
2022-11-25T05:01:21.317Z,60.91
2022-11-25T05:02:21.269Z,61.11
2022-11-25T05:03:21.156Z,61.32
2022-11-25T05:04:21.197Z,61.72
2022-11-25T05:05:21.156Z,61.82
2022-11-25T05:06:21.131Z,61.41
2022-11-25T05:07:21.291Z,61.82
2022-11-25T05:08:21.192Z,61.41
2022-11-25T05:09:21.156Z,61.72
2022-11-25T05:10:21.134Z,61.93
2022-11-25T05:11:21.122Z,61.72
2022-11-25T05:12:21.137Z,61.62
2022-11-25T05:13:21.136Z,61.41
2022-11-25T05:14:21.097Z,61.52
2022-11-25T05:15:21.096Z,61.41
2022-11-25T05:16:21.135Z,61.62
2022-11-25T05:17:21.075Z,61.62
2022-11-25T05:18:21.103Z,61.62
2022-11-25T05:19:21.115Z,61.41
2022-11-25T05:20:21.057Z,61.72
2022-11-25T05:21:21.035Z,61.52
2022-11-25T05:22:21.037Z,61.41
2022-11-25T05:23:21.035Z,61.32
2022-11-25T05:24:21.015Z,61.21
2022-11-25T05:25:21.082Z,61.41
2022-11-25T05:26:21.017Z,61.49
2022-11-25T05:27:21.026Z,61.39
2022-11-25T05:28:20.979Z,61.32
2022-11-25T05:29:20.955Z,61.32
2022-11-25T05:30:20.995Z,61.32
2022-11-25T05:31:21.110Z,61.41
2022-11-25T05:32:20.956Z,61.41
2022-11-25T05:33:20.982Z,61.29
2022-11-25T05:34:20.956Z,61.82
2022-11-25T05:35:20.937Z,61.41
2022-11-25T05:36:20.933Z,61.21
2022-11-25T05:37:24.297Z,61.62
2022-11-25T05:38:20.917Z,61.49
2022-11-25T05:39:20.913Z,61.41
2022-11-25T05:40:20.906Z,61.32
2022-11-25T05:41:20.899Z,61.41
2022-11-25T05:42:20.917Z,61.32
2022-11-25T05:43:20.916Z,61.01
2022-11-25T05:44:23.072Z,61.41
2022-11-25T05:45:20.873Z,61.52
2022-11-25T05:46:20.962Z,61.52
2022-11-25T05:47:20.868Z,61.52
2022-11-25T05:48:20.865Z,61.41
2022-11-25T05:49:21.153Z,61.21
2022-11-25T05:50:20.838Z,61.32
2022-11-25T05:51:20.812Z,61.52
2022-11-25T05:52:20.817Z,61.32
2022-11-25T05:53:20.775Z,61.41
2022-11-25T05:54:20.796Z,61.41
2022-11-25T05:55:20.833Z,61.72
2022-11-25T05:56:20.797Z,61.52
2022-11-25T05:57:20.797Z,61.62
2022-11-25T05:58:20.795Z,61.52
2022-11-25T05:59:20.732Z,61.11
2022-11-25T06:00:25.129Z,61.65
2022-11-25T06:01:21.786Z,61.41
2022-11-25T06:02:20.805Z,61.52
2022-11-25T06:03:20.748Z,61.32
2022-11-25T06:04:20.716Z,61.21
2022-11-25T06:05:20.712Z,61.11
2022-11-25T06:06:20.737Z,61.21
2022-11-25T06:07:20.842Z,61.52
2022-11-25T06:08:20.736Z,61.32
2022-11-25T06:09:20.695Z,61.41
2022-11-25T06:10:20.696Z,61.41
2022-11-25T06:11:20.698Z,61.41
2022-11-25T06:12:20.696Z,61.41
2022-11-25T06:13:20.772Z,61.32
2022-11-25T06:14:20.657Z,61.21
2022-11-25T06:15:20.659Z,61.41
2022-11-25T06:16:20.700Z,61.21
2022-11-25T06:17:20.656Z,61.41
2022-11-25T06:18:20.656Z,61.32
2022-11-25T06:19:20.696Z,61.52
2022-11-25T06:20:20.615Z,61.41
2022-11-25T06:21:20.624Z,61.52
2022-11-25T06:22:20.615Z,61.52
2022-11-25T06:23:20.626Z,61.32
2022-11-25T06:24:20.613Z,61.21
2022-11-25T06:25:20.654Z,61.21
2022-11-25T06:26:20.572Z,61.72
2022-11-25T06:27:20.577Z,61.21
2022-11-25T06:28:20.574Z,61.52
2022-11-25T06:29:20.572Z,61.52
2022-11-25T06:30:20.535Z,61.11
2022-11-25T06:31:20.625Z,60.81
2022-11-25T06:32:20.535Z,61.62
2022-11-25T06:33:20.542Z,61.59
2022-11-25T06:34:20.531Z,61.41
2022-11-25T06:35:20.496Z,61.41
2022-11-25T06:36:20.498Z,61.29
2022-11-25T06:37:20.577Z,61.41
2022-11-25T06:38:20.504Z,60.81
2022-11-25T06:39:20.537Z,60.71
2022-11-25T06:40:20.433Z,60.81
2022-11-25T06:41:20.417Z,60.71
2022-11-25T06:42:20.421Z,60.81
2022-11-25T06:43:20.463Z,60.78
2022-11-25T06:44:20.416Z,61.08
2022-11-25T06:45:20.406Z,60.81
2022-11-25T06:46:24.808Z,60.81
2022-11-25T06:47:20.395Z,60.78
2022-11-25T06:48:20.370Z,60.60
2022-11-25T06:49:20.635Z,60.78
2022-11-25T06:50:20.352Z,60.81
2022-11-25T06:51:20.365Z,60.81
2022-11-25T06:52:20.356Z,60.71
2022-11-25T06:53:24.115Z,60.47
2022-11-25T06:54:20.324Z,60.58
2022-11-25T06:55:20.378Z,60.91
2022-11-25T06:56:20.294Z,61.21
2022-11-25T06:57:20.306Z,60.98
2022-11-25T06:58:35.366Z,61.29
2022-11-25T06:59:21.534Z,61.39
2022-11-25T07:00:20.327Z,61.29
2022-11-25T07:01:20.469Z,61.52
2022-11-25T07:02:20.479Z,61.32
2022-11-25T07:03:20.384Z,61.29
2022-11-25T07:04:20.288Z,61.08
2022-11-25T07:05:20.293Z,60.47
2022-11-25T07:06:20.371Z,60.37
2022-11-25T07:07:20.391Z,60.68
2022-11-25T07:08:20.283Z,60.47
2022-11-25T07:09:20.370Z,60.37
2022-11-25T07:10:20.258Z,60.27
2022-11-25T07:11:20.246Z,60.37
2022-11-25T07:12:20.260Z,60.47
2022-11-25T07:13:20.335Z,60.37
2022-11-25T07:14:20.243Z,60.58
2022-11-25T07:15:20.211Z,60.68
2022-11-25T07:16:20.259Z,60.27
2022-11-25T07:17:20.246Z,60.37
2022-11-25T07:18:20.366Z,60.47
2022-11-25T07:19:20.283Z,60.88
2022-11-25T07:20:20.168Z,60.47
2022-11-25T07:21:20.171Z,60.68
2022-11-25T07:22:20.167Z,60.47
2022-11-25T07:23:20.164Z,60.47
2022-11-25T07:24:20.257Z,60.37
2022-11-25T07:25:20.247Z,60.47
2022-11-25T07:26:20.127Z,60.58
2022-11-25T07:27:20.126Z,60.47
2022-11-25T07:28:20.163Z,60.98
2022-11-25T07:31:23.779Z,60.37
2022-11-25T07:32:20.093Z,60.47
2022-11-25T07:33:20.206Z,60.78
2022-11-25T07:34:20.240Z,60.47
2022-11-25T07:35:20.164Z,60.98
2022-11-25T07:36:20.211Z,60.58
2022-11-25T07:37:20.139Z,60.68
2022-11-25T07:38:20.203Z,60.47
2022-11-25T07:39:20.046Z,60.37
2022-11-25T07:40:20.043Z,60.68
2022-11-25T07:41:20.122Z,60.37
2022-11-25T07:42:20.082Z,60.47
2022-11-25T07:43:20.006Z,60.35
2022-11-25T07:44:20.083Z,60.47
2022-11-25T07:45:20.008Z,59.84
2022-11-25T07:46:26.183Z,60.44
2022-11-25T07:47:21.128Z,60.14
2022-11-25T07:48:20.046Z,60.65
2022-11-25T07:49:20.092Z,60.14
2022-11-25T07:50:19.967Z,60.24
2022-11-25T07:51:19.974Z,59.53
2022-11-25T07:52:20.004Z,59.74
2022-11-25T07:53:20.248Z,60.11
2022-11-25T07:54:20.009Z,60.21
2022-11-25T07:55:19.929Z,60.01
2022-11-25T07:56:20.043Z,60.01
2022-11-25T07:57:20.089Z,59.81
2022-11-25T07:58:19.974Z,60.04
2022-11-25T07:59:20.046Z,59.94
2022-11-25T08:00:19.968Z,60.01
2022-11-25T08:01:20.019Z,59.91
2022-11-25T08:02:19.941Z,59.81
2022-11-25T08:03:20.201Z,59.91
2022-11-25T08:04:20.997Z,59.61
2022-11-25T08:05:20.013Z,60.01
2022-11-25T08:06:19.883Z,60.01
2022-11-25T08:07:19.881Z,59.91
2022-11-25T08:08:19.847Z,60.11
2022-11-25T08:09:19.887Z,60.11
2022-11-25T08:10:19.803Z,59.81
2022-11-25T08:11:19.893Z,59.91
2022-11-25T08:12:19.809Z,59.81
2022-11-25T08:13:19.845Z,60.21
2022-11-25T08:14:19.847Z,59.70
2022-11-25T08:15:19.767Z,59.70
2022-11-25T08:16:19.894Z,59.61
2022-11-25T08:17:19.814Z,60.01
2022-11-25T08:18:19.845Z,60.52
2022-11-25T08:19:19.976Z,60.62
2022-11-25T08:20:19.766Z,60.21
2022-11-25T08:21:19.966Z,60.52
2022-11-25T08:22:19.724Z,60.21
2022-11-25T08:23:20.086Z,60.42
2022-11-25T08:24:19.927Z,60.01
2022-11-25T08:25:19.889Z,60.21
2022-11-25T08:26:19.856Z,59.70
2022-11-25T08:27:19.850Z,60.24
2022-11-25T08:28:19.789Z,60.14
2022-11-25T08:29:20.047Z,60.11
2022-11-25T08:30:19.893Z,60.01
2022-11-25T08:31:19.940Z,59.91
2022-11-25T08:32:19.647Z,60.21
2022-11-25T08:33:19.805Z,60.52
2022-11-25T08:34:19.807Z,60.11
2022-11-25T08:35:19.965Z,59.91
2022-11-25T08:36:19.729Z,60.11
2022-11-25T08:37:19.883Z,59.70
2022-11-25T08:38:19.807Z,59.91
2022-11-25T08:39:50.645Z,60.82
2022-11-25T08:40:21.204Z,61.10
2022-11-25T08:41:19.848Z,62.04
2022-11-25T08:42:19.644Z,62.34
2022-11-25T08:43:21.205Z,61.10
2022-11-25T10:20:55.142Z,91.25
2022-11-25T10:21:54.987Z,92.49
2022-11-25T10:22:55.030Z,92.69
2022-11-25T10:23:54.991Z,92.63
2022-11-25T10:24:54.980Z,92.88
2022-11-25T10:25:54.959Z,93.50
2022-11-25T10:26:55.020Z,93.60
2022-11-25T10:27:54.960Z,94.84
2022-11-25T10:28:54.981Z,95.05
2022-11-25T10:29:54.920Z,94.84
2022-11-25T10:30:54.966Z,94.70
2022-11-25T10:31:54.993Z,94.53
2022-11-25T10:32:59.302Z,95.15
2022-11-25T10:33:55.931Z,94.80
2022-11-25T10:34:54.926Z,93.87
2022-11-25T10:35:54.922Z,95.52
2022-11-25T10:36:54.911Z,95.37
2022-11-25T10:37:54.875Z,93.77
2022-11-25T10:38:54.930Z,94.49
2022-11-25T10:39:54.898Z,94.90
2022-11-25T10:40:54.886Z,95.48
2022-11-25T10:41:54.881Z,94.55
2022-11-25T10:42:54.880Z,94.24
2022-11-25T10:43:54.841Z,94.09
2022-11-25T10:45:04.779Z,93.43
2022-11-25T10:45:54.895Z,92.92
2022-11-25T10:47:13.408Z,93.02
2022-11-25T10:47:55.900Z,92.82
2022-11-25T10:48:54.830Z,93.06
2022-11-25T10:49:54.821Z,93.64
2022-11-25T10:50:54.859Z,92.44
2022-11-25T10:51:54.787Z,94.24
2022-11-25T10:52:54.797Z,94.18
2022-11-25T10:53:54.805Z,95.06
2022-11-25T10:54:54.795Z,94.55
2022-11-25T10:55:54.776Z,94.85
2022-11-25T10:56:54.836Z,94.96
2022-11-25T10:57:54.810Z,95.48
2022-11-25T10:58:54.749Z,95.48
2022-11-25T10:59:54.761Z,94.40
2022-11-25T11:00:54.753Z,94.60
2022-11-25T11:01:54.750Z,93.88
2022-11-25T11:02:54.813Z,94.34
2022-11-25T11:03:54.722Z,94.45
2022-11-25T11:04:54.746Z,95.06
2022-11-25T11:05:54.722Z,95.21
2022-11-25T11:06:54.708Z,95.62
2022-11-25T11:07:54.758Z,96.14
2022-11-25T11:08:54.742Z,96.45
2022-11-25T11:09:54.684Z,96.28
2022-11-25T11:10:57.268Z,96.86
2022-11-25T11:11:54.710Z,95.93
2022-11-25T11:12:54.664Z,95.58
2022-11-25T11:13:54.685Z,96.09
2022-11-25T11:14:54.688Z,95.37
2022-11-25T11:15:54.802Z,94.96
2022-11-25T11:16:54.645Z,94.30
2022-11-25T11:17:54.637Z,94.45
2022-11-25T11:18:54.627Z,94.30
2022-11-25T11:19:54.599Z,94.51
2022-11-25T11:20:54.750Z,94.09
2022-11-25T11:21:54.564Z,93.58
2022-11-25T11:22:54.586Z,93.58
2022-11-25T11:23:54.599Z,93.88
2022-11-25T11:24:54.568Z,94.60
2022-11-25T11:25:54.556Z,94.30
2022-11-25T11:26:54.624Z,94.81
2022-11-25T11:27:54.550Z,94.60
2022-11-25T11:28:54.549Z,95.43
2022-11-25T11:29:54.557Z,95.02
2022-11-25T11:30:54.554Z,94.96
2022-11-25T11:31:54.598Z,95.12
2022-11-25T11:32:54.568Z,94.51
2022-11-25T11:33:54.527Z,94.81
2022-11-25T11:34:54.550Z,94.51
2022-11-25T11:35:54.526Z,93.62
2022-11-25T11:36:54.487Z,94.34
2022-11-25T11:37:54.493Z,94.51
2022-11-25T11:38:54.496Z,94.51
2022-11-25T11:39:54.509Z,94.71
2022-11-25T11:40:54.461Z,94.15
2022-11-25T11:41:54.467Z,93.43
2022-11-25T11:42:54.461Z,93.29
2022-11-25T11:43:54.423Z,93.49
2022-11-25T11:44:54.507Z,92.67
2022-11-25T11:45:54.451Z,92.32
2022-11-25T11:46:54.464Z,92.52
2022-11-25T11:47:54.436Z,92.69
2022-11-25T11:48:54.388Z,92.17
2022-11-25T11:49:54.393Z,92.54
2022-11-25T11:50:54.507Z,90.63
2022-11-25T11:51:54.391Z,90.73
2022-11-25T11:52:54.368Z,91.04
2022-11-25T11:53:54.387Z,90.42
2022-11-25T11:54:54.406Z,92.52
2022-11-25T11:56:34.867Z,93.35
2022-11-25T11:56:55.678Z,93.35
2022-11-25T11:57:54.336Z,93.14
2022-11-25T11:58:54.319Z,92.73
2022-11-25T11:59:54.347Z,92.57
2022-11-25T12:00:54.307Z,92.67
2022-11-25T12:01:54.417Z,92.63
2022-11-25T12:02:54.492Z,92.73
2022-11-25T12:03:54.538Z,93.96
2022-11-25T12:04:54.263Z,92.32
2022-11-25T12:05:54.347Z,93.18
2022-11-25T12:06:54.278Z,92.77
2022-11-25T12:07:54.349Z,93.39
2022-11-25T12:08:54.324Z,93.96
2022-11-25T12:09:54.267Z,92.93
2022-11-25T12:10:54.280Z,93.55
2022-11-25T12:11:54.255Z,93.51
2022-11-25T12:12:54.228Z,93.10
2022-11-25T12:13:59.371Z,91.66
2022-11-25T12:14:55.290Z,91.04
2022-11-25T12:15:54.275Z,92.32
2022-11-25T12:16:54.263Z,92.52
2022-11-25T12:17:54.237Z,93.18
2022-11-25T12:18:54.228Z,93.49
2022-11-25T12:19:54.188Z,93.29
2022-11-25T12:20:54.541Z,92.87
2022-11-25T12:21:54.157Z,93.08
2022-11-25T12:22:54.189Z,92.87
2022-11-25T12:23:54.208Z,93.90
2022-11-25T12:24:54.168Z,92.17
2022-11-25T12:25:54.143Z,91.39
2022-11-25T12:26:54.228Z,91.49
2022-11-25T12:27:54.128Z,92.42
2022-11-25T12:28:54.104Z,92.63
2022-11-25T12:29:54.112Z,92.83
2022-11-25T12:30:54.074Z,92.73
2022-11-25T12:31:54.177Z,93.35
2022-11-25T12:32:54.160Z,93.04
2022-11-25T12:33:54.070Z,93.44
2022-11-25T12:34:54.097Z,93.90
2022-11-25T12:35:54.106Z,94.07
2022-11-25T12:36:54.053Z,93.86
2022-11-25T12:37:54.071Z,93.61
2022-11-25T12:38:54.126Z,92.99
2022-11-25T12:39:54.046Z,93.05
2022-11-25T12:40:54.028Z,92.85
2022-11-25T12:41:54.027Z,92.44
2022-11-25T12:42:54.028Z,92.13
2022-11-25T12:43:54.035Z,91.31
2022-11-25T12:44:54.083Z,91.31
2022-11-25T12:45:54.074Z,91.72
2022-11-25T12:46:53.977Z,92.74
2022-11-25T12:47:53.997Z,92.58
2022-11-25T12:48:53.994Z,92.44
2022-11-25T12:49:53.987Z,92.23
2022-11-25T12:50:54.040Z,92.33
2022-11-25T12:51:53.970Z,92.29
2022-11-25T12:52:54.092Z,91.16
2022-11-25T12:53:53.947Z,92.60
2022-11-25T12:54:53.956Z,91.16
2022-11-25T12:55:53.939Z,90.65
2022-11-25T12:56:54.026Z,90.85
2022-11-25T12:57:53.948Z,91.02
2022-11-25T12:58:54.022Z,90.87
2022-11-25T13:00:06.221Z,89.75
2022-11-25T13:00:54.948Z,89.60
2022-11-25T13:01:53.990Z,89.60
2022-11-25T13:02:54.036Z,88.88
2022-11-25T13:03:53.889Z,89.45
2022-11-25T13:04:53.876Z,87.82
2022-11-25T13:05:53.867Z,89.04
2022-11-25T13:06:53.847Z,89.19
2022-11-25T13:07:53.902Z,89.09
2022-11-25T13:08:53.913Z,88.78
2022-11-25T13:09:53.954Z,88.94
2022-11-25T13:10:53.826Z,88.43
2022-11-25T13:11:54.043Z,88.10
2022-11-25T13:12:54.098Z,89.43
2022-11-25T13:13:54.132Z,89.84
2022-11-25T13:14:54.311Z,89.17
2022-11-25T13:15:54.247Z,90.81
2022-11-25T13:16:54.189Z,91.06
2022-11-25T13:17:53.853Z,91.37
2022-11-25T13:18:53.767Z,91.72
2022-11-25T13:19:53.763Z,92.74
2022-11-25T13:20:53.811Z,93.01
2022-11-25T13:21:53.723Z,92.40
2022-11-25T13:22:53.747Z,92.19
2022-11-25T13:23:53.724Z,92.29
2022-11-25T13:24:53.719Z,92.08
2022-11-25T13:25:53.721Z,92.29
2022-11-25T13:26:53.828Z,92.38
2022-11-25T13:27:53.700Z,92.74
2022-11-25T13:28:53.699Z,94.02
2022-11-25T13:29:53.711Z,93.76
2022-11-25T13:30:53.709Z,94.12
2022-11-25T13:31:58.744Z,93.71
2022-11-25T13:32:54.747Z,93.77
2022-11-25T13:33:53.683Z,93.36
2022-11-25T13:34:53.616Z,93.46
2022-11-25T13:35:53.608Z,93.36
2022-11-25T13:36:53.648Z,92.64
2022-11-25T13:37:53.639Z,93.36
2022-11-25T13:38:53.808Z,93.46
2022-11-25T13:39:53.642Z,93.42
2022-11-25T13:40:53.580Z,93.12
2022-11-25T13:41:53.688Z,92.70
2022-11-25T13:43:06.015Z,92.91
2022-11-25T13:43:53.587Z,92.46
2022-11-25T13:44:53.607Z,92.50
2022-11-25T13:45:53.633Z,92.50
2022-11-25T13:46:53.555Z,92.70
2022-11-25T13:47:53.567Z,92.70
2022-11-25T13:48:53.536Z,92.50
2022-11-25T13:49:53.528Z,92.95
2022-11-25T13:51:10.668Z,93.26
2022-11-25T13:51:54.506Z,92.74
2022-11-25T13:52:53.527Z,93.05
2022-11-25T13:53:53.488Z,92.85
2022-11-25T13:54:53.472Z,92.40
2022-11-25T13:55:53.490Z,92.25
2022-11-25T13:56:53.580Z,91.12
2022-11-25T13:57:53.484Z,91.02
2022-11-25T13:58:53.467Z,91.22
2022-11-25T13:59:54.514Z,91.53
2022-11-25T14:00:53.463Z,91.42
2022-11-25T14:01:53.527Z,92.40
2022-11-25T14:02:53.574Z,92.55
2022-11-25T14:03:53.479Z,92.55
2022-11-25T14:04:53.426Z,93.01
2022-11-25T14:05:53.428Z,92.80
2022-11-25T14:06:53.442Z,93.63
2022-11-25T14:07:53.519Z,92.60
2022-11-25T14:08:53.446Z,93.21
2022-11-25T14:09:53.391Z,93.42
2022-11-25T14:10:53.411Z,93.52
2022-11-25T14:11:53.387Z,92.60
2022-11-25T14:12:53.358Z,93.21
2022-11-25T14:13:53.336Z,93.38
2022-11-25T14:14:53.400Z,93.38
2022-11-25T14:15:53.462Z,92.55
2022-11-25T14:16:53.454Z,92.60
2022-11-25T14:17:53.383Z,93.32
2022-11-25T14:19:22.157Z,93.83
2022-11-25T14:19:54.416Z,93.93
2022-11-25T14:20:53.340Z,93.93
2022-11-25T14:21:53.287Z,93.52
2022-11-25T14:22:53.325Z,93.42
2022-11-25T14:23:53.336Z,92.97
2022-11-25T14:24:53.295Z,92.76
2022-11-25T14:25:53.350Z,93.59
2022-11-25T14:26:53.311Z,92.97
2022-11-25T14:27:53.264Z,93.17
2022-11-25T14:28:53.280Z,93.27
2022-11-25T14:29:53.288Z,93.32
2022-11-25T14:30:53.878Z,93.73